sensor_id;sensor_type;location;lat;lon;timestamp;pressure;altitude;pressure_sealevel;temperature;humidity
54588;BME280;40484;50.198;19.576;2023-05-01T00:03:03;102201.55;;;12.07;36.90
54588;BME280;40484;50.198;19.576;2023-05-01T00:08:46;102208.08;;;11.97;37.16
54588;BME280;40484;50.198;19.576;2023-05-01T00:13:47;102201.47;;;11.77;37.49
54588;BME280;40484;50.198;19.576;2023-05-01T00:18:49;102194.67;;;11.69;37.73
54588;BME280;40484;50.198;19.576;2023-05-01T00:23:50;102198.09;;;11.61;37.92
54588;BME280;40484;50.198;19.576;2023-05-01T00:28:52;102204.65;;;11.57;38.00
54588;BME280;40484;50.198;19.576;2023-05-01T00:33:53;102191.78;;;11.46;38.06
54588;BME280;40484;50.198;19.576;2023-05-01T00:38:56;102192.20;;;11.35;38.08
54588;BME280;40484;50.198;19.576;2023-05-01T00:43:57;102188.44;;;11.34;37.77
54588;BME280;40484;50.198;19.576;2023-05-01T00:48:59;102184.18;;;11.40;37.49
54588;BME280;40484;50.198;19.576;2023-05-01T00:54:02;102181.00;;;11.37;37.47
54588;BME280;40484;50.198;19.576;2023-05-01T00:59:03;102186.02;;;11.17;37.59
54588;BME280;40484;50.198;19.576;2023-05-01T01:04:05;102191.06;;;10.97;37.99
54588;BME280;40484;50.198;19.576;2023-05-01T01:14:41;102196.50;;;11.10;38.07
54588;BME280;40484;50.198;19.576;2023-05-01T01:36:50;102182.49;;;10.75;38.06
54588;BME280;40484;50.198;19.576;2023-05-01T01:41:50;102189.94;;;10.74;37.94
54588;BME280;40484;50.198;19.576;2023-05-01T01:46:53;102185.43;;;10.77;37.99
54588;BME280;40484;50.198;19.576;2023-05-01T01:51:55;102178.36;;;10.76;38.04
54588;BME280;40484;50.198;19.576;2023-05-01T01:56:59;102178.65;;;10.71;38.18
54588;BME280;40484;50.198;19.576;2023-05-01T02:02:29;102179.59;;;10.65;38.26
54588;BME280;40484;50.198;19.576;2023-05-01T02:07:31;102169.30;;;10.50;38.62
54588;BME280;40484;50.198;19.576;2023-05-01T02:12:35;102163.23;;;10.39;38.83
54588;BME280;40484;50.198;19.576;2023-05-01T02:17:38;102164.55;;;10.34;38.98
54588;BME280;40484;50.198;19.576;2023-05-01T02:22:42;102157.58;;;10.19;39.16
54588;BME280;40484;50.198;19.576;2023-05-01T02:27:58;102157.55;;;10.10;39.46
54588;BME280;40484;50.198;19.576;2023-05-01T02:32:59;102154.02;;;10.00;39.64
54588;BME280;40484;50.198;19.576;2023-05-01T02:38:00;102150.99;;;9.95;39.79
54588;BME280;40484;50.198;19.576;2023-05-01T02:43:04;102154.31;;;9.87;39.88
54588;BME280;40484;50.198;19.576;2023-05-01T02:48:07;102146.02;;;9.88;40.02
54588;BME280;40484;50.198;19.576;2023-05-01T02:53:11;102140.11;;;9.92;39.99
54588;BME280;40484;50.198;19.576;2023-05-01T02:58:17;102140.79;;;9.85;40.09
54588;BME280;40484;50.198;19.576;2023-05-01T03:03:18;102132.55;;;9.79;40.18
54588;BME280;40484;50.198;19.576;2023-05-01T03:08:20;102142.39;;;9.83;40.08
54588;BME280;40484;50.198;19.576;2023-05-01T03:13:22;102142.17;;;9.66;40.24
54588;BME280;40484;50.198;19.576;2023-05-01T03:18:23;102141.41;;;9.69;40.19
54588;BME280;40484;50.198;19.576;2023-05-01T03:23:25;102132.99;;;9.64;40.20
54588;BME280;40484;50.198;19.576;2023-05-01T03:28:52;102131.61;;;9.58;40.24
54588;BME280;40484;50.198;19.576;2023-05-01T03:33:54;102123.90;;;9.48;40.37
54588;BME280;40484;50.198;19.576;2023-05-01T03:38:55;102125.85;;;9.52;40.39
54588;BME280;40484;50.198;19.576;2023-05-01T03:43:57;102128.14;;;9.44;40.31
54588;BME280;40484;50.198;19.576;2023-05-01T03:48:58;102123.18;;;9.29;40.78
54588;BME280;40484;50.198;19.576;2023-05-01T03:54:00;102120.90;;;9.28;40.80
54588;BME280;40484;50.198;19.576;2023-05-01T03:59:02;102127.75;;;9.36;41.03
54588;BME280;40484;50.198;19.576;2023-05-01T04:04:04;102122.83;;;9.38;40.95
54588;BME280;40484;50.198;19.576;2023-05-01T04:09:05;102114.20;;;9.42;41.05
54588;BME280;40484;50.198;19.576;2023-05-01T04:14:08;102108.70;;;9.46;41.23
54588;BME280;40484;50.198;19.576;2023-05-01T04:19:09;102112.16;;;9.52;41.37
54588;BME280;40484;50.198;19.576;2023-05-01T04:24:10;102104.20;;;9.57;41.59
54588;BME280;40484;50.198;19.576;2023-05-01T04:29:13;102105.44;;;9.75;41.88
54588;BME280;40484;50.198;19.576;2023-05-01T04:34:14;102111.59;;;9.98;42.18
54588;BME280;40484;50.198;19.576;2023-05-01T04:39:16;102112.09;;;10.29;42.23
54588;BME280;40484;50.198;19.576;2023-05-01T04:44:17;102113.66;;;10.65;41.94
54588;BME280;40484;50.198;19.576;2023-05-01T04:49:20;102116.91;;;11.04;41.62
54588;BME280;40484;50.198;19.576;2023-05-01T04:54:22;102115.73;;;11.43;41.18
54588;BME280;40484;50.198;19.576;2023-05-01T04:59:24;102113.22;;;11.82;40.28
54588;BME280;40484;50.198;19.576;2023-05-01T05:04:26;102102.82;;;12.11;39.58
54588;BME280;40484;50.198;19.576;2023-05-01T05:09:28;102098.84;;;12.54;39.04
54588;BME280;40484;50.198;19.576;2023-05-01T05:14:56;102094.75;;;13.02;38.03
54588;BME280;40484;50.198;19.576;2023-05-01T05:19:58;102091.14;;;13.17;37.70
54588;BME280;40484;50.198;19.576;2023-05-01T05:25:00;102099.45;;;13.12;36.99
54588;BME280;40484;50.198;19.576;2023-05-01T05:30:04;102091.20;;;13.43;36.94
54588;BME280;40484;50.198;19.576;2023-05-01T05:35:06;102095.75;;;13.65;36.27
54588;BME280;40484;50.198;19.576;2023-05-01T05:40:08;102096.86;;;13.73;35.53
54588;BME280;40484;50.198;19.576;2023-05-01T05:45:10;102092.81;;;13.92;35.43
54588;BME280;40484;50.198;19.576;2023-05-01T05:50:12;102083.87;;;14.02;34.80
54588;BME280;40484;50.198;19.576;2023-05-01T05:55:14;102087.72;;;14.17;34.35
54588;BME280;40484;50.198;19.576;2023-05-01T06:00:15;102093.59;;;14.20;34.71
54588;BME280;40484;50.198;19.576;2023-05-01T06:05:17;102099.04;;;14.24;35.06
54588;BME280;40484;50.198;19.576;2023-05-01T06:10:19;102094.49;;;14.32;34.31
54588;BME280;40484;50.198;19.576;2023-05-01T06:15:20;102099.84;;;14.53;34.55
54588;BME280;40484;50.198;19.576;2023-05-01T06:20:24;102092.97;;;14.19;33.94
54588;BME280;40484;50.198;19.576;2023-05-01T06:25:25;102097.05;;;14.40;34.19
54588;BME280;40484;50.198;19.576;2023-05-01T06:30:27;102103.26;;;13.91;33.87
54588;BME280;40484;50.198;19.576;2023-05-01T06:35:29;102100.28;;;14.21;34.37
54588;BME280;40484;50.198;19.576;2023-05-01T06:40:30;102105.12;;;14.23;33.55
54588;BME280;40484;50.198;19.576;2023-05-01T06:45:34;102101.39;;;14.37;33.85
54588;BME280;40484;50.198;19.576;2023-05-01T06:50:35;102096.97;;;14.77;33.39
54588;BME280;40484;50.198;19.576;2023-05-01T06:56:05;102096.02;;;15.18;33.24
54588;BME280;40484;50.198;19.576;2023-05-01T07:01:06;102104.82;;;15.25;33.13
54588;BME280;40484;50.198;19.576;2023-05-01T07:06:08;102095.82;;;15.40;33.16
54588;BME280;40484;50.198;19.576;2023-05-01T07:11:09;102100.02;;;15.45;32.70
54588;BME280;40484;50.198;19.576;2023-05-01T07:16:11;102101.27;;;15.53;32.44
54588;BME280;40484;50.198;19.576;2023-05-01T07:21:12;102100.22;;;15.48;32.89
54588;BME280;40484;50.198;19.576;2023-05-01T07:26:14;102099.40;;;15.72;32.26
54588;BME280;40484;50.198;19.576;2023-05-01T07:31:15;102100.66;;;15.64;32.04
54588;BME280;40484;50.198;19.576;2023-05-01T07:36:17;102100.43;;;15.84;31.49
54588;BME280;40484;50.198;19.576;2023-05-01T07:41:20;102100.20;;;15.64;30.38
54588;BME280;40484;50.198;19.576;2023-05-01T07:46:22;102102.09;;;15.94;30.54
54588;BME280;40484;50.198;19.576;2023-05-01T07:51:24;102096.41;;;16.06;30.36
54588;BME280;40484;50.198;19.576;2023-05-01T07:56:25;102100.43;;;15.84;30.64
54588;BME280;40484;50.198;19.576;2023-05-01T08:01:27;102102.52;;;15.41;32.53
54588;BME280;40484;50.198;19.576;2023-05-01T08:06:29;102104.23;;;15.45;31.34
54588;BME280;40484;50.198;19.576;2023-05-01T08:11:31;102114.23;;;15.27;32.05
54588;BME280;40484;50.198;19.576;2023-05-01T08:16:36;102103.78;;;15.63;31.10
54588;BME280;40484;50.198;19.576;2023-05-01T08:21:38;102100.20;;;15.64;32.79
54588;BME280;40484;50.198;19.576;2023-05-01T08:26:39;102095.99;;;16.11;31.19
54588;BME280;40484;50.198;19.576;2023-05-01T08:31:41;102103.79;;;16.57;31.77
54588;BME280;40484;50.198;19.576;2023-05-01T08:36:43;102094.63;;;16.39;30.41
54588;BME280;40484;50.198;19.576;2023-05-01T08:42:09;102095.74;;;16.21;29.52
54588;BME280;40484;50.198;19.576;2023-05-01T08:47:16;102097.20;;;16.72;31.91
54588;BME280;40484;50.198;19.576;2023-05-01T08:52:18;102100.32;;;17.17;31.17
54588;BME280;40484;50.198;19.576;2023-05-01T08:57:21;102096.90;;;17.24;30.07
54588;BME280;40484;50.198;19.576;2023-05-01T09:02:23;102097.09;;;17.28;29.52
54588;BME280;40484;50.198;19.576;2023-05-01T09:07:25;102079.53;;;17.42;30.45
54588;BME280;40484;50.198;19.576;2023-05-01T09:12:26;102075.80;;;17.36;29.94
54588;BME280;40484;50.198;19.576;2023-05-01T09:17:29;102075.94;;;17.44;29.24
54588;BME280;40484;50.198;19.576;2023-05-01T09:22:32;102071.49;;;17.70;30.24
54588;BME280;40484;50.198;19.576;2023-05-01T09:27:35;102068.16;;;17.67;29.76
54588;BME280;40484;50.198;19.576;2023-05-01T09:32:36;102065.50;;;17.85;29.71
54588;BME280;40484;50.198;19.576;2023-05-01T09:37:38;102060.16;;;18.12;28.58
54588;BME280;40484;50.198;19.576;2023-05-01T09:42:50;102057.48;;;18.23;28.30
54588;BME280;40484;50.198;19.576;2023-05-01T09:47:53;102053.09;;;18.38;28.17
54588;BME280;40484;50.198;19.576;2023-05-01T09:52:55;102050.02;;;18.47;28.07
54588;BME280;40484;50.198;19.576;2023-05-01T09:57:56;102060.44;;;18.04;28.62
54588;BME280;40484;50.198;19.576;2023-05-01T10:02:59;102041.41;;;18.47;28.06
54588;BME280;40484;50.198;19.576;2023-05-01T10:08:48;102041.62;;;18.80;28.55
54588;BME280;40484;50.198;19.576;2023-05-01T10:19:03;102021.75;;;19.09;28.53
54588;BME280;40484;50.198;19.576;2023-05-01T10:24:05;102025.57;;;19.20;27.28
54588;BME280;40484;50.198;19.576;2023-05-01T10:29:08;102014.36;;;19.48;26.06
54588;BME280;40484;50.198;19.576;2023-05-01T10:34:11;102014.90;;;19.63;27.51
54588;BME280;40484;50.198;19.576;2023-05-01T10:39:33;102011.55;;;19.86;25.90
54588;BME280;40484;50.198;19.576;2023-05-01T10:44:35;102005.72;;;19.83;25.83
54588;BME280;40484;50.198;19.576;2023-05-01T10:50:02;102005.63;;;20.38;27.10
54588;BME280;40484;50.198;19.576;2023-05-01T10:55:36;101995.39;;;20.71;26.50
54588;BME280;40484;50.198;19.576;2023-05-01T11:00:37;101991.28;;;20.66;25.88
54588;BME280;40484;50.198;19.576;2023-05-01T11:21:41;101981.36;;;21.26;22.86
54588;BME280;40484;50.198;19.576;2023-05-01T11:26:43;101975.58;;;21.37;23.93
54588;BME280;40484;50.198;19.576;2023-05-01T11:31:47;101966.12;;;21.35;23.60
54588;BME280;40484;50.198;19.576;2023-05-01T11:36:50;101963.31;;;21.20;22.79
54588;BME280;40484;50.198;19.576;2023-05-01T11:42:04;101953.98;;;21.54;22.42
54588;BME280;40484;50.198;19.576;2023-05-01T11:47:19;101946.55;;;21.92;21.55
54588;BME280;40484;50.198;19.576;2023-05-01T11:52:21;101943.12;;;21.64;22.11
54588;BME280;40484;50.198;19.576;2023-05-01T11:57:22;101934.55;;;21.82;21.64
54588;BME280;40484;50.198;19.576;2023-05-01T12:02:24;101936.00;;;21.76;18.98
54588;BME280;40484;50.198;19.576;2023-05-01T12:07:25;101930.02;;;22.13;20.55
54588;BME280;40484;50.198;19.576;2023-05-01T12:12:27;101915.20;;;22.07;21.92
54588;BME280;40484;50.198;19.576;2023-05-01T12:17:29;101907.16;;;22.48;23.07
54588;BME280;40484;50.198;19.576;2023-05-01T12:22:31;101906.55;;;22.61;21.61
54588;BME280;40484;50.198;19.576;2023-05-01T12:27:41;101898.38;;;22.44;21.40
54588;BME280;40484;50.198;19.576;2023-05-01T12:32:37;101896.73;;;22.75;21.31
54588;BME280;40484;50.198;19.576;2023-05-01T12:37:39;101890.09;;;22.71;21.99
54588;BME280;40484;50.198;19.576;2023-05-01T12:42:41;101873.63;;;23.00;22.06
54588;BME280;40484;50.198;19.576;2023-05-01T12:47:44;101875.05;;;23.25;21.52
54588;BME280;40484;50.198;19.576;2023-05-01T12:52:46;101864.35;;;23.52;20.77
54588;BME280;40484;50.198;19.576;2023-05-01T12:57:52;101854.07;;;23.59;19.13
54588;BME280;40484;50.198;19.576;2023-05-01T13:02:55;101853.72;;;23.70;20.49
54588;BME280;40484;50.198;19.576;2023-05-01T13:07:57;101845.95;;;23.79;20.67
54588;BME280;40484;50.198;19.576;2023-05-01T13:12:59;101842.41;;;23.19;20.10
54588;BME280;40484;50.198;19.576;2023-05-01T13:18:04;101832.86;;;23.59;21.38
54588;BME280;40484;50.198;19.576;2023-05-01T13:23:31;101827.01;;;23.90;20.54
54588;BME280;40484;50.198;19.576;2023-05-01T13:28:34;101824.00;;;23.97;20.63
54588;BME280;40484;50.198;19.576;2023-05-01T13:33:38;101821.59;;;24.09;20.45
54588;BME280;40484;50.198;19.576;2023-05-01T13:38:48;101810.06;;;24.15;20.27
54588;BME280;40484;50.198;19.576;2023-05-01T13:43:52;101809.58;;;24.33;20.37
54588;BME280;40484;50.198;19.576;2023-05-01T13:48:54;101804.70;;;23.64;20.50
54588;BME280;40484;50.198;19.576;2023-05-01T13:53:56;101801.12;;;24.11;20.79
54588;BME280;40484;50.198;19.576;2023-05-01T13:58:59;101792.81;;;24.37;20.27
54588;BME280;40484;50.198;19.576;2023-05-01T14:04:01;101793.52;;;24.61;19.67
54588;BME280;40484;50.198;19.576;2023-05-01T14:09:04;101778.77;;;24.82;19.74
54588;BME280;40484;50.198;19.576;2023-05-01T14:14:05;101781.79;;;24.96;20.20
54588;BME280;40484;50.198;19.576;2023-05-01T14:19:07;101765.88;;;24.81;19.98
54588;BME280;40484;50.198;19.576;2023-05-01T14:24:09;101763.53;;;24.26;19.61
54588;BME280;40484;50.198;19.576;2023-05-01T14:29:21;101757.16;;;24.71;20.00
54588;BME280;40484;50.198;19.576;2023-05-01T14:34:17;101751.12;;;24.64;19.89
54588;BME280;40484;50.198;19.576;2023-05-01T14:39:19;101755.20;;;24.82;19.50
54588;BME280;40484;50.198;19.576;2023-05-01T14:44:23;101751.09;;;24.88;19.83
54588;BME280;40484;50.198;19.576;2023-05-01T14:49:51;101739.05;;;25.29;19.08
54588;BME280;40484;50.198;19.576;2023-05-01T14:54:56;101730.76;;;25.24;19.53
54588;BME280;40484;50.198;19.576;2023-05-01T14:59:57;101735.23;;;25.33;19.86
54588;BME280;40484;50.198;19.576;2023-05-01T15:04:59;101732.61;;;25.21;20.15
54588;BME280;40484;50.198;19.576;2023-05-01T15:10:01;101730.68;;;25.44;20.06
54588;BME280;40484;50.198;19.576;2023-05-01T15:15:03;101727.52;;;25.73;20.16
54588;BME280;40484;50.198;19.576;2023-05-01T15:20:05;101715.69;;;25.76;20.29
54588;BME280;40484;50.198;19.576;2023-05-01T15:25:08;101704.02;;;25.84;19.53
54588;BME280;40484;50.198;19.576;2023-05-01T15:30:13;101715.29;;;25.41;20.34
54588;BME280;40484;50.198;19.576;2023-05-01T15:35:14;101709.62;;;25.61;19.88
54588;BME280;40484;50.198;19.576;2023-05-01T15:40:17;101708.30;;;25.48;20.30
54588;BME280;40484;50.198;19.576;2023-05-01T15:45:18;101691.92;;;25.53;20.61
54588;BME280;40484;50.198;19.576;2023-05-01T15:50:20;101698.41;;;25.24;20.49
54588;BME280;40484;50.198;19.576;2023-05-01T15:55:23;101699.64;;;24.79;21.01
54588;BME280;40484;50.198;19.576;2023-05-01T16:00:25;101699.00;;;24.84;20.98
54588;BME280;40484;50.198;19.576;2023-05-01T16:05:26;101695.44;;;24.96;21.35
54588;BME280;40484;50.198;19.576;2023-05-01T16:10:28;101694.55;;;25.16;19.87
54588;BME280;40484;50.198;19.576;2023-05-01T16:15:30;101689.49;;;25.05;20.57
54588;BME280;40484;50.198;19.576;2023-05-01T16:20:41;101688.52;;;25.13;20.42
54588;BME280;40484;50.198;19.576;2023-05-01T16:26:04;101685.34;;;25.35;20.23
54588;BME280;40484;50.198;19.576;2023-05-01T16:31:07;101680.84;;;25.49;20.25
54588;BME280;40484;50.198;19.576;2023-05-01T16:36:10;101677.05;;;25.70;20.07
54588;BME280;40484;50.198;19.576;2023-05-01T16:41:16;101679.13;;;25.66;19.57
54588;BME280;40484;50.198;19.576;2023-05-01T16:46:19;101678.73;;;25.92;19.77
54588;BME280;40484;50.198;19.576;2023-05-01T16:51:20;101670.85;;;25.96;19.62
54588;BME280;40484;50.198;19.576;2023-05-01T16:56:22;101667.08;;;26.20;19.60
54588;BME280;40484;50.198;19.576;2023-05-01T17:01:24;101668.49;;;26.05;19.71
54588;BME280;40484;50.198;19.576;2023-05-01T17:06:25;101672.96;;;25.53;19.97
54588;BME280;40484;50.198;19.576;2023-05-01T17:11:27;101676.70;;;25.42;20.34
54588;BME280;40484;50.198;19.576;2023-05-01T17:16:29;101670.02;;;25.61;20.30
54588;BME280;40484;50.198;19.576;2023-05-01T17:21:31;101664.36;;;25.55;20.37
54588;BME280;40484;50.198;19.576;2023-05-01T17:26:32;101665.91;;;25.28;20.55
54588;BME280;40484;50.198;19.576;2023-05-01T17:31:34;101659.88;;;24.88;20.90
54588;BME280;40484;50.198;19.576;2023-05-01T17:36:36;101650.24;;;24.43;21.45
54588;BME280;40484;50.198;19.576;2023-05-01T17:41:37;101646.25;;;24.02;21.96
54588;BME280;40484;50.198;19.576;2023-05-01T17:46:39;101647.84;;;23.54;22.44
54588;BME280;40484;50.198;19.576;2023-05-01T17:51:41;101650.35;;;23.22;22.84
54588;BME280;40484;50.198;19.576;2023-05-01T17:56:42;101651.02;;;22.89;23.35
54588;BME280;40484;50.198;19.576;2023-05-01T18:01:44;101651.49;;;22.59;23.54
54588;BME280;40484;50.198;19.576;2023-05-01T18:07:11;101649.72;;;22.38;23.85
54588;BME280;40484;50.198;19.576;2023-05-01T18:12:13;101655.16;;;22.09;24.10
54588;BME280;40484;50.198;19.576;2023-05-01T18:17:14;101658.05;;;21.92;24.31
54588;BME280;40484;50.198;19.576;2023-05-01T18:22:16;101658.73;;;21.66;24.83
54588;BME280;40484;50.198;19.576;2023-05-01T18:27:17;101659.31;;;21.61;24.81
54588;BME280;40484;50.198;19.576;2023-05-01T18:32:19;101663.17;;;21.53;25.03
54588;BME280;40484;50.198;19.576;2023-05-01T18:37:20;101652.73;;;21.55;25.25
54588;BME280;40484;50.198;19.576;2023-05-01T18:42:24;101658.19;;;21.37;25.33
54588;BME280;40484;50.198;19.576;2023-05-01T18:47:25;101657.90;;;21.32;25.51
54588;BME280;40484;50.198;19.576;2023-05-01T18:52:28;101654.64;;;21.28;25.69
54588;BME280;40484;50.198;19.576;2023-05-01T18:57:29;101664.10;;;21.23;25.69
54588;BME280;40484;50.198;19.576;2023-05-01T19:02:32;101663.47;;;21.15;25.90
54588;BME280;40484;50.198;19.576;2023-05-01T19:07:33;101664.59;;;21.06;26.05
54588;BME280;40484;50.198;19.576;2023-05-01T19:12:35;101670.25;;;21.01;26.28
54588;BME280;40484;50.198;19.576;2023-05-01T19:17:38;101665.02;;;20.99;26.50
54588;BME280;40484;50.198;19.576;2023-05-01T19:22:40;101659.34;;;20.91;26.76
54588;BME280;40484;50.198;19.576;2023-05-01T19:27:41;101663.00;;;20.81;27.00
54588;BME280;40484;50.198;19.576;2023-05-01T19:32:44;101668.81;;;20.64;27.33
54588;BME280;40484;50.198;19.576;2023-05-01T19:37:46;101662.07;;;20.55;27.55
54588;BME280;40484;50.198;19.576;2023-05-01T19:42:47;101654.48;;;20.46;27.71
54588;BME280;40484;50.198;19.576;2023-05-01T19:47:49;101647.72;;;20.39;27.91
54588;BME280;40484;50.198;19.576;2023-05-01T19:53:18;101660.02;;;20.44;28.14
54588;BME280;40484;50.198;19.576;2023-05-01T19:58:21;101659.50;;;20.24;28.76
54588;BME280;40484;50.198;19.576;2023-05-01T20:03:22;101648.12;;;20.08;29.16
54588;BME280;40484;50.198;19.576;2023-05-01T20:08:24;101650.48;;;19.99;29.31
54588;BME280;40484;50.198;19.576;2023-05-01T20:13:26;101636.41;;;19.88;29.52
54588;BME280;40484;50.198;19.576;2023-05-01T20:18:28;101639.26;;;19.67;29.98
54588;BME280;40484;50.198;19.576;2023-05-01T20:23:29;101635.47;;;19.49;30.30
54588;BME280;40484;50.198;19.576;2023-05-01T20:28:30;101634.05;;;19.37;30.39
54588;BME280;40484;50.198;19.576;2023-05-01T20:33:32;101638.82;;;19.12;30.63
54588;BME280;40484;50.198;19.576;2023-05-01T20:38:40;101637.76;;;19.13;30.69
54588;BME280;40484;50.198;19.576;2023-05-01T20:43:43;101643.55;;;19.18;30.73
54588;BME280;40484;50.198;19.576;2023-05-01T20:48:46;101642.45;;;19.20;30.62
54588;BME280;40484;50.198;19.576;2023-05-01T20:53:48;101649.35;;;18.94;31.46
54588;BME280;40484;50.198;19.576;2023-05-01T20:58:49;101651.35;;;18.88;31.60
54588;BME280;40484;50.198;19.576;2023-05-01T21:03:51;101656.20;;;18.99;31.54
54588;BME280;40484;50.198;19.576;2023-05-01T21:08:52;101654.94;;;18.98;31.45
54588;BME280;40484;50.198;19.576;2023-05-01T21:13:56;101660.92;;;18.94;31.31
54588;BME280;40484;50.198;19.576;2023-05-01T21:18:57;101659.75;;;18.90;31.55
54588;BME280;40484;50.198;19.576;2023-05-01T21:23:58;101661.10;;;18.85;32.10
54588;BME280;40484;50.198;19.576;2023-05-01T21:29:27;101665.43;;;18.81;32.51
54588;BME280;40484;50.198;19.576;2023-05-01T21:34:29;101669.69;;;18.66;32.91
54588;BME280;40484;50.198;19.576;2023-05-01T21:39:30;101674.21;;;18.61;33.00
54588;BME280;40484;50.198;19.576;2023-05-01T21:44:32;101682.05;;;18.48;33.15
54588;BME280;40484;50.198;19.576;2023-05-01T21:49:33;101683.84;;;18.41;33.24
54588;BME280;40484;50.198;19.576;2023-05-01T21:54:35;101687.35;;;18.35;33.36
54588;BME280;40484;50.198;19.576;2023-05-01T21:59:38;101682.41;;;18.18;33.59
54588;BME280;40484;50.198;19.576;2023-05-01T22:04:39;101682.96;;;17.97;33.59
54588;BME280;40484;50.198;19.576;2023-05-01T22:09:41;101694.16;;;17.94;33.99
54588;BME280;40484;50.198;19.576;2023-05-01T22:14:44;101694.55;;;17.83;34.21
54588;BME280;40484;50.198;19.576;2023-05-01T22:19:46;101694.14;;;17.83;34.31
54588;BME280;40484;50.198;19.576;2023-05-01T22:24:48;101689.83;;;17.74;34.54
54588;BME280;40484;50.198;19.576;2023-05-01T22:29:49;101700.25;;;17.67;34.68
54588;BME280;40484;50.198;19.576;2023-05-01T22:34:51;101704.02;;;17.67;34.85
54588;BME280;40484;50.198;19.576;2023-05-01T22:39:52;101701.90;;;17.69;34.99
54588;BME280;40484;50.198;19.576;2023-05-01T22:44:54;101695.08;;;17.61;35.24
54588;BME280;40484;50.198;19.576;2023-05-01T22:49:55;101699.97;;;17.57;35.42
54588;BME280;40484;50.198;19.576;2023-05-01T22:54:57;101695.85;;;17.51;35.42
54588;BME280;40484;50.198;19.576;2023-05-01T22:59:58;101695.10;;;17.45;35.60
54588;BME280;40484;50.198;19.576;2023-05-01T23:05:00;101698.23;;;17.46;35.54
54588;BME280;40484;50.198;19.576;2023-05-01T23:10:01;101701.58;;;17.35;35.77
54588;BME280;40484;50.198;19.576;2023-05-01T23:15:03;101696.20;;;17.13;35.96
54588;BME280;40484;50.198;19.576;2023-05-01T23:20:29;101696.05;;;17.08;36.08
54588;BME280;40484;50.198;19.576;2023-05-01T23:25:30;101699.15;;;16.94;36.40
54588;BME280;40484;50.198;19.576;2023-05-01T23:30:32;101700.60;;;16.78;36.67
54588;BME280;40484;50.198;19.576;2023-05-01T23:35:33;101700.55;;;16.84;36.44
54588;BME280;40484;50.198;19.576;2023-05-01T23:40:35;101703.09;;;16.99;36.17
54588;BME280;40484;50.198;19.576;2023-05-01T23:45:39;101689.15;;;17.07;36.31
54588;BME280;40484;50.198;19.576;2023-05-01T23:50:41;101687.50;;;17.04;36.41
54588;BME280;40484;50.198;19.576;2023-05-01T23:55:43;101686.56;;;16.93;36.58
